Time;durP1;ratioP1;P1;durP2;ratioP2;P2;SDS_P1;SDS_P2;PMS_P1;PMS_P2;Temp;Humidity;BMP_temperature;BMP_pressure;BME280_temperature;BME280_humidity;BME280_pressure;Samples;Min_cycle;Max_cycle;Signal;HPM_P1;HPM_P2
2023/03/07 00:01:31;;;;;;;32.70;16.00;;;;;;;-1.04;83.99;98873.59;130717;1258;107608;-75
2023/03/07 00:04:37;;;;;;;43.40;23.60;;;;;;;-1.01;83.51;98876.33;130538;1256;107303;-76
2023/03/07 00:07:43;;;;;;;55.90;28.70;;;;;;;-0.94;83.71;98871.09;130534;1256;107455;-75
2023/03/07 00:10:48;;;;;;;94.60;48.30;;;;;;;-0.84;83.37;98872.38;130585;1256;107561;-75
2023/03/07 00:13:55;;;;;;;62.00;33.00;;;;;;;-0.72;83.01;98874.57;130513;1256;107344;-75
2023/03/07 00:17:00;;;;;;;37.70;20.80;;;;;;;-0.67;83.07;98872.93;130474;1256;107462;-75
2023/03/07 00:20:09;;;;;;;35.90;20.10;;;;;;;-0.76;82.98;98869.25;130533;1258;107525;-76
2023/03/07 00:23:15;;;;;;;34.60;19.70;;;;;;;-0.85;83.18;98875.50;130656;1258;107454;-76
2023/03/07 00:26:23;;;;;;;37.40;20.60;;;;;;;-0.97;83.28;98870.09;130485;1258;107555;-77
2023/03/07 00:29:28;;;;;;;50.40;25.70;;;;;;;-0.99;83.11;98869.55;130499;1258;106977;-76
2023/03/07 00:32:34;;;;;;;48.40;25.00;;;;;;;-0.96;83.06;98867.04;130587;1256;107489;-74
2023/03/07 00:35:40;;;;;;;44.10;21.40;;;;;;;-0.96;82.89;98863.38;130538;1262;107529;-75
2023/03/07 00:38:46;;;;;;;48.00;23.80;;;;;;;-1.00;82.79;98862.48;130469;1256;107535;-75
2023/03/07 00:41:52;;;;;;;42.40;21.40;;;;;;;-1.04;82.99;98865.02;130626;1262;107847;-75
2023/03/07 00:44:58;;;;;;;47.80;24.50;;;;;;;-1.01;82.64;98863.42;130723;1259;107660;-75
2023/03/07 00:48:03;;;;;;;61.10;33.10;;;;;;;-0.97;82.41;98858.77;130592;1261;108035;-76
2023/03/07 00:51:11;;;;;;;71.90;36.40;;;;;;;-0.96;82.20;98859.55;130620;1261;107508;-75
2023/03/07 00:54:17;;;;;;;119.90;57.50;;;;;;;-0.95;82.12;98854.27;130464;1261;107555;-76
2023/03/07 00:57:23;;;;;;;107.70;49.60;;;;;;;-0.99;82.00;98855.90;130433;1261;107415;-76
2023/03/07 01:00:28;;;;;;;117.80;51.00;;;;;;;-1.04;81.49;98855.92;130515;1261;107542;-76
2023/03/07 01:03:36;;;;;;;108.20;46.50;;;;;;;-1.11;81.35;98854.14;130516;1259;107499;-75
2023/03/07 01:06:41;;;;;;;100.00;42.90;;;;;;;-1.16;81.50;98851.23;130484;1259;105457;-78
2023/03/07 01:09:52;;;;;;;72.80;33.70;;;;;;;-1.22;81.43;98851.46;130499;1261;107585;-77
2023/03/07 01:12:57;;;;;;;72.10;33.30;;;;;;;-1.26;81.40;98847.79;130517;1258;107576;-75
2023/03/07 01:16:11;;;;;;;69.50;33.20;;;;;;;-1.27;81.29;98846.48;130447;1258;107521;-76
2023/03/07 01:19:18;;;;;;;68.50;31.20;;;;;;;-1.27;81.25;98845.42;130545;1260;107597;-75
2023/03/07 01:22:24;;;;;;;58.30;26.70;;;;;;;-1.27;80.94;98846.61;130493;1258;107733;-75
2023/03/07 01:25:30;;;;;;;60.30;27.80;;;;;;;-1.24;81.14;98840.48;130522;1268;107466;-76
2023/03/07 01:28:36;;;;;;;56.70;26.10;;;;;;;-1.15;80.92;98836.85;130557;1256;107257;-76
2023/03/07 01:31:42;;;;;;;52.30;24.90;;;;;;;-1.06;80.78;98838.48;130576;1261;107577;-76
2023/03/07 01:34:48;;;;;;;49.50;24.80;;;;;;;-0.96;80.92;98838.11;130576;1258;107575;-75
2023/03/07 01:37:54;;;;;;;45.70;24.10;;;;;;;-0.90;80.55;98837.82;130482;1261;108676;-76
2023/03/07 01:41:01;;;;;;;42.00;22.60;;;;;;;-0.88;80.61;98834.49;130523;1258;107479;-76
2023/03/07 01:44:17;;;;;;;41.70;21.70;;;;;;;-0.83;80.62;98838.30;130565;1256;107546;-73
2023/03/07 01:47:23;;;;;;;44.80;21.80;;;;;;;-0.79;80.55;98840.60;130524;1255;107532;-77
2023/03/07 01:50:31;;;;;;;37.60;19.90;;;;;;;-0.75;80.36;98831.42;130543;1256;107561;-74
2023/03/07 01:53:37;;;;;;;33.20;18.00;;;;;;;-0.73;80.50;98830.77;130587;1258;108006;-75
2023/03/07 01:56:45;;;;;;;36.30;20.20;;;;;;;-0.70;80.49;98834.69;130598;1261;107511;-75
2023/03/07 01:59:55;;;;;;;37.60;19.50;;;;;;;-0.67;80.46;98835.05;130454;1259;107465;-75
2023/03/07 02:03:10;;;;;;;46.40;22.60;;;;;;;-0.63;80.66;98832.77;130531;1258;106204;-77
2023/03/07 02:06:19;;;;;;;64.40;32.70;;;;;;;-0.63;80.65;98833.79;130498;1259;107543;-75
2023/03/07 02:09:26;;;;;;;72.30;39.10;;;;;;;-0.66;80.74;98829.66;130552;1259;107465;-75
2023/03/07 02:12:33;;;;;;;46.70;24.50;;;;;;;-0.63;81.01;98830.30;130485;1258;107468;-77
2023/03/07 02:15:39;;;;;;;36.70;19.30;;;;;;;-0.59;80.85;98829.65;130431;1269;108717;-78
2023/03/07 02:18:49;;;;;;;36.80;19.20;;;;;;;-0.53;80.90;98829.20;130633;1258;107537;-73
2023/03/07 02:22:04;;;;;;;57.20;22.60;;;;;;;-0.45;80.79;98828.23;130587;1261;106902;-75
2023/03/07 02:25:17;;;;;;;39.50;19.10;;;;;;;-0.41;80.79;98829.21;130468;1262;105635;-76
2023/03/07 02:28:24;;;;;;;34.10;18.10;;;;;;;-0.44;80.37;98829.95;130468;1261;107767;-75
2023/03/07 02:31:30;;;;;;;40.90;20.80;;;;;;;-0.47;80.75;98825.98;130513;1258;107454;-76
2023/03/07 02:34:36;;;;;;;43.30;23.20;;;;;;;-0.40;80.95;98823.30;130507;1258;107645;-76
2023/03/07 02:37:59;;;;;;;41.90;22.40;;;;;;;-0.33;80.65;98815.84;130487;1265;107536;-77
2023/03/07 02:41:07;;;;;;;38.70;20.10;;;;;;;-0.33;80.54;98814.58;130511;1259;107544;-77
2023/03/07 02:44:13;;;;;;;42.10;20.90;;;;;;;-0.46;80.17;98812.11;130519;1262;107488;-75
2023/03/07 02:47:20;;;;;;;39.90;20.50;;;;;;;-0.57;80.25;98810.52;130670;1262;107651;-75
2023/03/07 02:50:26;;;;;;;38.60;19.30;;;;;;;-0.78;80.38;98817.19;130500;1258;107504;-75
2023/03/07 02:53:32;;;;;;;39.30;19.50;;;;;;;-0.93;80.88;98818.98;130467;1259;107499;-74
2023/03/07 02:56:38;;;;;;;36.20;19.00;;;;;;;-0.94;80.90;98816.64;130544;1259;107565;-76
2023/03/07 02:59:43;;;;;;;44.60;21.50;;;;;;;-0.94;81.23;98816.08;130510;1258;107268;-76
2023/03/07 03:02:49;;;;;;;42.80;20.50;;;;;;;-0.83;81.17;98815.06;130691;1256;107354;-76
2023/03/07 03:05:58;;;;;;;47.10;22.50;;;;;;;-0.73;80.81;98811.59;130469;1258;108732;-77
2023/03/07 03:09:04;;;;;;;36.40;18.50;;;;;;;-0.66;81.14;98806.98;130502;1259;107621;-75
2023/03/07 03:12:11;;;;;;;38.10;19.30;;;;;;;-0.55;80.89;98812.84;130586;1258;107482;-75
2023/03/07 03:15:17;;;;;;;39.80;19.30;;;;;;;-0.45;80.95;98804.02;130492;1258;107582;-76
2023/03/07 03:18:27;;;;;;;35.20;18.40;;;;;;;-0.34;80.75;98806.66;130523;1259;107466;-74
2023/03/07 03:21:32;;;;;;;38.30;19.90;;;;;;;-0.24;80.68;98805.00;130477;1259;107587;-75
2023/03/07 03:24:42;;;;;;;31.50;17.80;;;;;;;-0.21;80.38;98803.30;130488;1258;107537;-75
2023/03/07 03:27:48;;;;;;;34.10;18.40;;;;;;;-0.39;79.48;98803.51;130542;1258;107941;-77
2023/03/07 03:31:01;;;;;;;32.30;17.60;;;;;;;-0.66;79.84;98804.90;130516;1259;107581;-77
2023/03/07 03:34:08;;;;;;;34.60;17.70;;;;;;;-0.82;80.27;98805.38;130553;1267;107491;-75
2023/03/07 03:37:14;;;;;;;39.80;21.10;;;;;;;-0.84;80.66;98803.14;130517;1258;108664;-77
2023/03/07 03:40:21;;;;;;;34.70;20.80;;;;;;;-0.79;80.73;98800.80;130506;1259;108620;-75
2023/03/07 03:43:27;;;;;;;46.30;22.80;;;;;;;-0.75;80.73;98802.46;130432;1258;107434;-75
2023/03/07 03:46:33;;;;;;;32.50;16.90;;;;;;;-0.71;80.56;98805.66;130427;1258;107467;-75
2023/03/07 03:49:39;;;;;;;35.00;17.90;;;;;;;-0.68;80.60;98804.55;130693;1258;107542;-76
2023/03/07 03:52:45;;;;;;;31.20;16.20;;;;;;;-0.73;79.81;98804.58;130532;1259;107635;-76
2023/03/07 03:55:51;;;;;;;32.10;18.10;;;;;;;-0.79;80.29;98799.27;130450;1259;107551;-75
2023/03/07 03:58:58;;;;;;;50.00;26.40;;;;;;;-0.68;80.45;98794.76;130524;1258;107525;-75
2023/03/07 04:02:04;;;;;;;41.90;22.90;;;;;;;-0.59;80.57;98789.30;130559;1259;107468;-76
2023/03/07 04:05:11;;;;;;;33.00;16.60;;;;;;;-0.52;80.36;98787.23;130498;1267;107414;-75
2023/03/07 04:08:16;;;;;;;37.10;21.40;;;;;;;-0.46;80.14;98777.52;130467;1258;107614;-75
2023/03/07 04:11:23;;;;;;;37.80;20.20;;;;;;;-0.44;80.04;98778.02;130650;1259;107570;-75
2023/03/07 04:14:29;;;;;;;28.30;16.10;;;;;;;-0.42;80.23;98780.86;130644;1259;107538;-75
2023/03/07 04:17:36;;;;;;;33.80;18.80;;;;;;;-0.42;80.00;98779.98;130464;1258;107502;-76
2023/03/07 04:20:45;;;;;;;41.50;24.30;;;;;;;-0.43;79.84;98773.27;130509;1261;108176;-74
2023/03/07 04:23:54;;;;;;;36.20;21.80;;;;;;;-0.46;79.96;98765.98;130631;1267;107984;-76
2023/03/07 04:27:01;;;;;;;34.20;18.40;;;;;;;-0.50;79.77;98768.90;130559;1260;107520;-75
2023/03/07 04:30:09;;;;;;;33.20;18.60;;;;;;;-0.51;79.98;98771.75;130467;1259;107537;-75
2023/03/07 04:33:15;;;;;;;118.90;33.10;;;;;;;-0.51;79.86;98774.98;130642;1268;107362;-74
2023/03/07 04:36:23;;;;;;;310.60;82.80;;;;;;;-0.59;79.68;98775.23;130431;1260;193219;-75
2023/03/07 04:39:30;;;;;;;343.20;98.30;;;;;;;-0.68;79.75;98773.41;130499;1256;109273;-75
2023/03/07 04:42:36;;;;;;;524.50;221.60;;;;;;;-0.76;79.68;98775.45;130476;1258;107500;-77
2023/03/07 04:45:42;;;;;;;52.90;24.70;;;;;;;-0.78;79.81;98775.92;130501;1258;107386;-76
2023/03/07 04:48:48;;;;;;;33.80;18.10;;;;;;;-0.72;79.70;98781.13;130497;1261;107261;-77
2023/03/07 04:51:54;;;;;;;32.00;16.10;;;;;;;-0.71;79.60;98782.59;130601;1262;107616;-74
2023/03/07 04:55:00;;;;;;;38.20;18.20;;;;;;;-0.65;79.60;98781.26;130596;1262;107432;-76
2023/03/07 04:58:09;;;;;;;31.80;16.20;;;;;;;-0.61;79.46;98778.52;130598;1261;107504;-76
2023/03/07 05:01:15;;;;;;;29.80;15.70;;;;;;;-0.63;79.28;98777.11;130544;1262;106544;-76
2023/03/07 05:04:22;;;;;;;28.90;15.10;;;;;;;-0.67;79.37;98781.98;130478;1260;107524;-75
2023/03/07 05:07:28;;;;;;;30.60;16.20;;;;;;;-0.71;79.28;98780.84;130526;1262;107544;-76
2023/03/07 05:10:35;;;;;;;29.30;15.20;;;;;;;-0.75;79.47;98781.65;130622;1268;107562;-75
2023/03/07 05:13:42;;;;;;;29.90;14.90;;;;;;;-0.78;79.49;98781.23;130618;1261;108600;-76
2023/03/07 05:16:49;;;;;;;26.90;14.30;;;;;;;-0.85;79.38;98782.98;130521;1259;107463;-76
2023/03/07 05:19:54;;;;;;;28.60;15.20;;;;;;;-0.90;79.64;98787.48;130537;1256;107243;-75
2023/03/07 05:23:00;;;;;;;31.80;16.40;;;;;;;-0.90;79.58;98785.10;130515;1260;107585;-75
2023/03/07 05:26:06;;;;;;;27.80;14.00;;;;;;;-0.94;79.37;98776.70;130508;1260;107543;-76
2023/03/07 05:29:12;;;;;;;33.30;17.00;;;;;;;-0.97;79.43;98779.64;130514;1261;108644;-75
2023/03/07 05:32:18;;;;;;;30.00;15.20;;;;;;;-0.96;79.54;98775.73;130466;1268;107533;-77
2023/03/07 05:35:24;;;;;;;29.20;14.60;;;;;;;-0.96;79.50;98779.58;130510;1268;107521;-76
2023/03/07 05:38:32;;;;;;;29.60;13.90;;;;;;;-0.92;79.47;98784.15;130463;1261;107540;-75
2023/03/07 05:41:38;;;;;;;29.80;15.10;;;;;;;-0.84;79.50;98789.11;130532;1259;107511;-74
2023/03/07 05:44:44;;;;;;;26.30;14.30;;;;;;;-0.76;79.58;98787.67;130539;1267;107460;-75
2023/03/07 05:47:50;;;;;;;29.00;13.70;;;;;;;-0.68;79.45;98783.91;130468;1267;107520;-74
2023/03/07 05:51:00;;;;;;;28.30;14.30;;;;;;;-0.59;79.26;98781.47;130497;1260;108637;-74
2023/03/07 05:54:06;;;;;;;28.50;14.50;;;;;;;-0.53;79.14;98783.10;130499;1260;107561;-76
2023/03/07 05:57:13;;;;;;;26.50;14.20;;;;;;;-0.50;79.12;98772.54;130505;1257;107570;-75
2023/03/07 06:00:22;;;;;;;26.60;14.20;;;;;;;-0.49;78.97;98771.63;130500;1260;107492;-75
2023/03/07 06:03:32;;;;;;;25.20;13.40;;;;;;;-0.45;79.03;98765.87;130546;1260;107596;-75
2023/03/07 06:06:38;;;;;;;26.90;14.00;;;;;;;-0.43;78.90;98762.80;130486;1259;107489;-74
2023/03/07 06:09:44;;;;;;;33.80;17.60;;;;;;;-0.42;78.84;98759.94;130478;1261;107459;-74
2023/03/07 06:12:52;;;;;;;48.70;24.50;;;;;;;-0.38;78.91;98761.70;130435;1260;107486;-75
2023/03/07 06:15:58;;;;;;;64.30;33.60;;;;;;;-0.37;78.83;98761.12;130554;1261;106258;-76
2023/03/07 06:19:04;;;;;;;64.00;38.60;;;;;;;-0.36;78.89;98760.13;130609;1275;107541;-74
2023/03/07 06:22:09;;;;;;;48.70;27.90;;;;;;;-0.31;78.81;98757.61;130492;1268;107573;-75
2023/03/07 06:25:15;;;;;;;39.20;20.70;;;;;;;-0.29;78.51;98748.94;130557;1254;107537;-76
2023/03/07 06:28:22;;;;;;;38.70;20.20;;;;;;;-0.32;78.46;98745.29;130569;1259;107497;-75
2023/03/07 06:31:28;;;;;;;32.10;17.30;;;;;;;-0.35;78.51;98748.21;130535;1267;107670;-75
2023/03/07 06:34:34;;;;;;;33.30;17.10;;;;;;;-0.37;78.59;98742.05;130535;1260;107445;-75
2023/03/07 06:37:40;;;;;;;41.30;18.60;;;;;;;-0.36;78.55;98738.13;130639;1254;107490;-75
2023/03/07 06:40:54;;;;;;;83.00;33.60;;;;;;;-0.27;78.57;98736.56;130499;1265;107513;-75
2023/03/07 06:44:00;;;;;;;46.70;21.40;;;;;;;-0.12;78.35;98737.76;130472;1262;107581;-76
2023/03/07 06:47:08;;;;;;;29.70;16.00;;;;;;;-0.01;77.99;98735.13;130525;1267;107487;-76
2023/03/07 06:50:15;;;;;;;30.50;15.90;;;;;;;0.05;77.85;98726.98;130504;1260;107545;-74
2023/03/07 06:53:21;;;;;;;52.60;24.70;;;;;;;0.09;77.66;98726.88;130541;1268;106503;-75
2023/03/07 06:56:30;;;;;;;38.90;20.00;;;;;;;0.09;77.57;98721.23;130575;1260;106063;-77
2023/03/07 06:59:36;;;;;;;43.40;21.20;;;;;;;0.12;77.59;98714.71;130537;1258;107690;-74
2023/03/07 07:02:42;;;;;;;50.40;23.10;;;;;;;0.11;77.44;98718.11;130521;1265;107258;-76
2023/03/07 07:05:48;;;;;;;40.70;19.90;;;;;;;0.13;77.68;98716.77;130695;1259;107620;-73
2023/03/07 07:08:57;;;;;;;39.40;19.00;;;;;;;0.19;77.58;98712.61;130643;1267;106583;-76
2023/03/07 07:12:04;;;;;;;39.30;19.80;;;;;;;0.27;77.53;98707.77;130567;1254;105887;-75
2023/03/07 07:15:12;;;;;;;48.80;23.70;;;;;;;0.31;77.36;98705.14;130554;1270;107985;-75
2023/03/07 07:18:18;;;;;;;63.10;29.60;;;;;;;0.34;77.20;98697.47;130569;1263;107581;-75
2023/03/07 07:21:24;;;;;;;52.60;25.70;;;;;;;0.45;77.33;98696.11;130552;1254;107528;-75
2023/03/07 07:24:30;;;;;;;52.20;26.10;;;;;;;0.56;77.45;98692.36;130484;1260;107576;-75
2023/03/07 07:27:36;;;;;;;54.30;27.30;;;;;;;0.70;77.62;98690.46;130480;1258;107463;-75
2023/03/07 07:30:43;;;;;;;51.00;26.20;;;;;;;0.83;77.44;98684.35;130519;1260;107579;-74
2023/03/07 07:33:49;;;;;;;43.30;23.40;;;;;;;0.92;77.47;98681.45;130501;1267;107562;-75
2023/03/07 07:36:56;;;;;;;47.50;24.80;;;;;;;1.08;77.62;98676.66;130638;1257;107543;-74
2023/03/07 07:40:04;;;;;;;44.20;23.70;;;;;;;1.14;77.36;98675.02;130640;1267;107472;-76
2023/03/07 07:43:15;;;;;;;45.90;24.20;;;;;;;1.22;77.48;98670.85;130556;1261;107508;-74
2023/03/07 07:46:28;;;;;;;46.10;24.20;;;;;;;1.35;77.57;98667.16;130824;1258;107460;-75
2023/03/07 07:49:34;;;;;;;43.20;22.10;;;;;;;1.49;77.56;98663.99;130531;1263;107249;-75
2023/03/07 07:52:43;;;;;;;42.60;22.40;;;;;;;1.62;77.40;98664.94;130751;1259;107517;-75
2023/03/07 07:55:50;;;;;;;45.70;23.30;;;;;;;1.74;77.35;98655.62;130484;1261;107552;-73
2023/03/07 07:58:56;;;;;;;44.60;25.00;;;;;;;1.85;77.40;98649.55;130536;1261;107550;-74
2023/03/07 08:02:02;;;;;;;42.30;23.70;;;;;;;1.91;77.41;98648.48;130390;1271;107550;-72
2023/03/07 08:05:11;;;;;;;47.30;25.30;;;;;;;2.03;77.68;98642.23;130507;1261;107550;-74
2023/03/07 08:08:18;;;;;;;58.60;30.20;;;;;;;2.21;77.58;98636.70;130470;1260;106474;-74
2023/03/07 08:11:24;;;;;;;52.90;27.90;;;;;;;2.39;77.46;98628.40;130486;1261;107611;-74
2023/03/07 08:14:30;;;;;;;49.30;26.70;;;;;;;2.61;77.69;98623.63;130437;1260;107284;-73
2023/03/07 08:17:36;;;;;;;54.10;29.70;;;;;;;2.84;77.91;98619.14;130453;1257;107592;-73
2023/03/07 08:20:41;;;;;;;48.10;26.10;;;;;;;3.06;77.74;98618.09;130448;1269;107527;-74
2023/03/07 08:23:47;;;;;;;49.70;26.60;;;;;;;3.24;77.59;98618.56;130501;1260;107583;-73
2023/03/07 08:26:52;;;;;;;48.50;28.60;;;;;;;3.37;77.65;98615.91;130446;1262;107607;-74
2023/03/07 08:29:58;;;;;;;48.50;28.00;;;;;;;3.56;77.69;98603.52;130460;1269;108745;-73
2023/03/07 08:33:04;;;;;;;49.80;30.00;;;;;;;3.81;77.57;98603.38;130642;1267;107545;-72
2023/03/07 08:36:10;;;;;;;48.00;27.20;;;;;;;3.98;77.66;98601.71;130674;1261;107430;-73
2023/03/07 08:39:16;;;;;;;45.70;27.70;;;;;;;4.16;77.53;98606.05;130546;1261;107608;-74
2023/03/07 08:42:22;;;;;;;45.40;27.50;;;;;;;4.35;77.44;98600.46;130484;1259;107690;-82
2023/03/07 08:45:27;;;;;;;47.20;28.00;;;;;;;4.52;77.61;98600.90;130584;1268;106751;-75
2023/03/07 08:48:33;;;;;;;43.40;25.30;;;;;;;4.67;77.58;98596.92;130690;1257;107536;-74
2023/03/07 08:51:39;;;;;;;38.10;23.80;;;;;;;4.82;77.46;98589.27;130538;1259;107562;-73
2023/03/07 08:54:45;;;;;;;35.60;22.60;;;;;;;4.90;77.42;98582.39;130587;1260;108591;-76
2023/03/07 08:57:50;;;;;;;36.40;22.10;;;;;;;4.95;77.27;98584.04;130487;1260;107527;-75
2023/03/07 09:00:57;;;;;;;35.20;22.40;;;;;;;5.03;77.15;98582.33;130453;1261;107624;-74
2023/03/07 09:04:03;;;;;;;37.40;22.40;;;;;;;5.07;76.95;98581.58;130541;1255;107301;-75
2023/03/07 09:07:09;;;;;;;36.20;21.80;;;;;;;5.09;77.19;98579.92;130527;1259;107563;-75
2023/03/07 09:10:16;;;;;;;34.50;21.90;;;;;;;5.19;76.95;98580.00;130602;1257;107447;-74
2023/03/07 09:13:21;;;;;;;34.70;22.00;;;;;;;5.24;77.15;98578.34;130703;1261;107400;-74
2023/03/07 09:16:27;;;;;;;37.80;22.60;;;;;;;5.23;76.90;98571.39;130648;1258;106438;-75
2023/03/07 09:19:34;;;;;;;37.70;23.40;;;;;;;5.18;76.75;98569.72;130752;1257;107417;-74
2023/03/07 09:22:39;;;;;;;39.40;24.50;;;;;;;5.09;76.98;98567.38;130646;1254;107439;-72
2023/03/07 09:25:45;;;;;;;40.60;24.70;;;;;;;5.09;76.87;98561.38;130568;1257;107442;-73
2023/03/07 09:28:51;;;;;;;38.20;21.40;;;;;;;5.01;76.91;98556.93;131001;1256;108516;-75
2023/03/07 09:31:56;;;;;;;39.10;22.10;;;;;;;4.92;77.11;98555.98;130507;1265;108699;-74
2023/03/07 09:35:02;;;;;;;41.00;23.90;;;;;;;4.84;76.88;98550.09;130509;1258;108698;-74
2023/03/07 09:38:09;;;;;;;41.50;23.80;;;;;;;4.76;77.13;98539.31;130614;1258;107486;-73
2023/03/07 09:41:39;;;;;;;42.40;24.10;;;;;;;4.69;76.74;98540.29;131425;1254;107287;-74
2023/03/07 09:45:02;;;;;;;41.50;24.20;;;;;;;4.67;77.08;98535.48;131168;1254;107538;-74
2023/03/07 09:48:57;;;;;;;41.80;23.80;;;;;;;4.62;77.36;98533.64;130805;1257;107911;-74
2023/03/07 09:52:09;;;;;;;70.10;37.20;;;;;;;4.65;77.41;98533.23;130609;1261;107585;-74
2023/03/07 09:55:19;;;;;;;78.20;44.00;;;;;;;4.66;77.48;98530.55;130823;1260;107592;-74
2023/03/07 09:58:27;;;;;;;47.00;27.70;;;;;;;4.62;77.31;98521.67;130640;1269;107393;-75
2023/03/07 10:01:35;;;;;;;49.50;27.80;;;;;;;4.57;77.43;98516.42;131299;1254;107318;-73
2023/03/07 10:04:47;;;;;;;52.70;27.70;;;;;;;4.56;77.35;98509.64;132135;1254;107500;-74
2023/03/07 10:07:54;;;;;;;58.60;29.00;;;;;;;4.51;77.57;98500.60;131760;1254;107259;-74
2023/03/07 10:11:15;;;;;;;55.80;27.10;;;;;;;4.50;77.63;98491.19;131459;1254;107557;-73
2023/03/07 10:14:46;;;;;;;56.50;27.60;;;;;;;4.50;77.51;98485.58;130477;1261;107565;-75
2023/03/07 10:18:16;;;;;;;40.40;22.20;;;;;;;4.56;77.76;98477.34;130939;1254;105786;-74
2023/03/07 10:21:32;;;;;;;40.20;23.70;;;;;;;4.71;77.95;98472.32;130496;1256;107348;-76
2023/03/07 10:25:18;;;;;;;59.10;30.50;;;;;;;4.81;77.48;98462.55;130527;1255;108703;-74
2023/03/07 10:28:28;;;;;;;39.20;23.10;;;;;;;4.89;77.45;98465.67;131132;1260;107604;-75
2023/03/07 10:31:39;;;;;;;38.70;23.10;;;;;;;4.87;77.38;98461.02;130231;1260;108648;-75
2023/03/07 10:34:45;;;;;;;38.00;23.30;;;;;;;4.92;77.49;98453.92;130144;1263;107562;-74
2023/03/07 10:37:55;;;;;;;38.10;23.40;;;;;;;5.01;77.09;98454.58;130272;1264;107576;-74
2023/03/07 10:41:06;;;;;;;47.80;26.90;;;;;;;5.04;77.20;98454.39;130398;1264;107495;-75
2023/03/07 10:44:18;;;;;;;52.40;29.20;;;;;;;5.10;77.47;98448.48;130108;1264;107672;-76
2023/03/07 10:47:25;;;;;;;43.40;26.50;;;;;;;5.22;77.46;98435.84;130714;1261;106603;-76
2023/03/07 10:50:42;;;;;;;52.00;26.10;;;;;;;5.29;77.26;98426.70;130689;1258;107675;-74
2023/03/07 10:53:50;;;;;;;40.50;23.20;;;;;;;5.43;77.43;98416.73;130473;1259;107258;-75
2023/03/07 10:57:07;;;;;;;37.80;23.10;;;;;;;5.64;77.28;98407.66;130487;1260;107283;-75
2023/03/07 11:00:22;;;;;;;35.50;23.70;;;;;;;5.93;77.02;98405.76;130628;1267;106707;-74
2023/03/07 11:03:43;;;;;;;36.50;23.30;;;;;;;6.20;76.94;98398.91;130506;1260;108192;-74
2023/03/07 11:06:56;;;;;;;34.40;23.20;;;;;;;6.45;76.55;98389.14;130462;1255;109055;-74
2023/03/07 11:10:24;;;;;;;34.10;23.30;;;;;;;6.64;75.87;98386.56;130597;1259;107467;-75
2023/03/07 11:13:31;;;;;;;35.60;23.80;;;;;;;6.79;75.93;98381.52;130540;1259;107557;-75
2023/03/07 11:16:42;;;;;;;35.20;23.50;;;;;;;6.90;75.81;98372.95;130573;1259;107534;-73
2023/03/07 11:19:48;;;;;;;33.60;23.30;;;;;;;6.91;75.81;98367.46;130464;1256;108415;-75
2023/03/07 11:23:18;;;;;;;53.70;36.00;;;;;;;6.92;75.87;98357.05;130652;1259;108838;-71
2023/03/07 11:26:24;;;;;;;33.20;22.70;;;;;;;7.04;75.62;98355.42;130674;1259;107649;-74
2023/03/07 11:29:32;;;;;;;41.90;25.60;;;;;;;7.20;75.24;98352.92;130536;1260;107545;-75
2023/03/07 11:32:44;;;;;;;43.40;26.90;;;;;;;7.22;75.10;98350.63;130577;1260;107577;-74
2023/03/07 11:35:59;;;;;;;37.40;24.30;;;;;;;7.21;74.95;98343.43;130517;1259;108745;-74
2023/03/07 11:39:16;;;;;;;29.50;20.80;;;;;;;7.10;73.66;98338.71;130575;1259;107488;-71
2023/03/07 11:42:25;;;;;;;29.00;19.90;;;;;;;7.01;73.95;98334.11;130597;1260;107559;-72
2023/03/07 11:45:39;;;;;;;29.60;20.30;;;;;;;7.04;74.18;98327.39;131563;1254;105708;-73
2023/03/07 11:48:57;;;;;;;28.70;19.60;;;;;;;7.10;73.80;98322.48;130593;1256;107220;-74
2023/03/07 11:52:15;;;;;;;26.50;19.00;;;;;;;7.16;73.61;98316.05;130570;1258;107665;-72
2023/03/07 11:55:31;;;;;;;40.30;25.80;;;;;;;7.26;73.91;98310.70;130670;1254;107520;-72
2023/03/07 11:58:54;;;;;;;30.50;21.30;;;;;;;7.34;73.89;98304.21;130692;1259;107526;-72
2023/03/07 12:02:04;;;;;;;29.30;20.20;;;;;;;7.42;73.84;98298.17;130761;1258;107555;-74
2023/03/07 12:05:26;;;;;;;26.70;18.90;;;;;;;7.42;73.09;98291.27;130480;1259;106798;-74
2023/03/07 12:08:43;;;;;;;46.10;26.00;;;;;;;7.40;72.81;98289.77;130494;1256;107588;-74
2023/03/07 12:12:01;;;;;;;29.40;19.40;;;;;;;7.41;72.93;98291.02;130830;1254;107383;-73
2023/03/07 12:15:26;;;;;;;31.70;20.40;;;;;;;7.39;72.80;98283.71;130513;1256;107195;-74
2023/03/07 12:18:52;;;;;;;28.20;18.30;;;;;;;7.41;72.10;98279.21;130582;1261;107438;-73
2023/03/07 12:22:26;;;;;;;25.60;17.60;;;;;;;7.44;71.69;98274.93;130367;1255;107588;-72
2023/03/07 12:25:36;;;;;;;29.10;20.40;;;;;;;7.51;71.31;98273.56;130422;1260;107536;-73
2023/03/07 12:28:49;;;;;;;22.70;16.40;;;;;;;7.55;71.75;98266.20;130448;1259;107558;-75
2023/03/07 12:31:59;;;;;;;24.00;17.10;;;;;;;7.63;71.27;98256.79;130441;1256;107547;-73
2023/03/07 12:35:16;;;;;;;22.70;15.80;;;;;;;7.67;71.70;98250.60;130473;1258;107394;-73
2023/03/07 12:38:32;;;;;;;19.20;14.50;;;;;;;7.73;70.89;98251.23;130486;1256;107395;-73
2023/03/07 12:41:53;;;;;;;27.30;19.30;;;;;;;7.75;70.61;98248.93;130497;1258;107598;-74
2023/03/07 12:45:03;;;;;;;26.20;18.20;;;;;;;7.80;69.38;98253.29;130503;1261;107554;-71
2023/03/07 12:48:17;;;;;;;19.70;14.70;;;;;;;7.74;68.53;98249.91;130531;1258;107509;-76
2023/03/07 12:51:29;;;;;;;16.70;12.40;;;;;;;7.68;68.70;98256.00;130769;1261;107583;-75
2023/03/07 12:54:40;;;;;;;18.30;14.30;;;;;;;7.63;68.34;98256.91;130561;1259;107538;-76
2023/03/07 12:57:50;;;;;;;17.00;11.80;;;;;;;7.53;67.73;98267.14;130525;1258;107685;-76
2023/03/07 13:01:01;;;;;;;16.40;11.60;;;;;;;7.43;69.02;98266.59;130660;1254;106705;-76
2023/03/07 13:04:12;;;;;;;14.60;10.70;;;;;;;7.30;68.33;98262.63;130668;1261;107305;-79
2023/03/07 13:07:24;;;;;;;17.60;13.20;;;;;;;7.17;68.58;98266.50;130532;1260;106773;-76
2023/03/07 13:10:30;;;;;;;14.70;11.10;;;;;;;7.00;67.96;98264.38;130509;1256;107691;-78
2023/03/07 13:13:57;;;;;;;17.20;11.40;;;;;;;6.89;68.37;98261.59;130684;1254;107255;-77
2023/03/07 13:17:02;;;;;;;16.50;11.70;;;;;;;6.80;68.49;98260.73;130572;1258;105527;-76
2023/03/07 13:20:44;;;;;;;15.40;11.30;;;;;;;6.73;68.61;98259.55;130467;1255;107543;-76
2023/03/07 13:23:49;;;;;;;17.30;11.40;;;;;;;6.59;68.58;98261.64;130774;1258;107525;-75
2023/03/07 13:26:56;;;;;;;15.80;11.30;;;;;;;6.47;67.95;98263.06;130801;1254;107814;-74
2023/03/07 13:30:20;;;;;;;16.50;11.60;;;;;;;6.34;68.01;98263.90;130729;1261;106055;-76
2023/03/07 13:33:28;;;;;;;14.90;11.10;;;;;;;6.21;67.80;98260.16;130572;1256;107607;-76
2023/03/07 13:36:36;;;;;;;16.50;11.40;;;;;;;6.12;68.38;98256.10;130640;1257;107492;-77
2023/03/07 13:40:05;;;;;;;17.10;12.00;;;;;;;6.03;68.33;98253.45;130519;1257;107455;-76
2023/03/07 13:43:58;;;;;;;16.20;11.20;;;;;;;5.94;68.41;98253.34;130726;1257;107574;-76
2023/03/07 13:47:04;;;;;;;63.20;29.00;;;;;;;5.85;68.37;98248.51;130548;1257;107499;-76
2023/03/07 13:50:39;;;;;;;39.80;20.30;;;;;;;5.76;68.20;98251.05;130490;1257;107450;-77
2023/03/07 13:53:46;;;;;;;235.50;81.70;;;;;;;5.67;67.91;98244.02;130548;1255;107536;-75
2023/03/07 13:56:52;;;;;;;195.80;66.60;;;;;;;5.61;68.18;98239.01;130600;1258;106740;-76
2023/03/07 13:59:58;;;;;;;70.60;27.40;;;;;;;5.58;68.39;98237.20;130579;1256;107522;-76
2023/03/07 14:03:13;;;;;;;152.40;55.40;;;;;;;5.56;68.58;98229.48;130510;1254;107443;-75
2023/03/07 14:06:22;;;;;;;59.30;23.60;;;;;;;5.56;68.29;98226.56;130536;1255;107575;-76
2023/03/07 14:09:43;;;;;;;112.20;38.40;;;;;;;5.57;68.45;98220.24;130688;1258;107638;-75
2023/03/07 14:13:10;;;;;;;54.60;20.80;;;;;;;5.57;68.39;98214.09;130699;1255;108545;-74
2023/03/07 14:16:31;;;;;;;101.20;36.60;;;;;;;5.57;68.43;98213.69;130440;1254;107593;-76